createdAt,value
2017-06-04T00:01:01.129Z,16.98
2017-06-04T00:03:29.527Z,12.36
2017-06-04T00:05:57.892Z,10.08
2017-06-04T00:08:26.275Z,9.64
2017-06-04T00:10:54.635Z,12.14
2017-06-04T00:13:23.017Z,10.84
2017-06-04T00:15:51.380Z,10.74
2017-06-04T00:18:19.770Z,12.74
2017-06-04T00:20:48.136Z,11.12
2017-06-04T00:23:16.502Z,10.98
2017-06-04T00:25:44.886Z,10.20
2017-06-04T00:28:13.258Z,11.08
2017-06-04T00:30:41.639Z,11.52
2017-06-04T00:33:10.013Z,11.62
2017-06-04T00:35:38.392Z,11.90
2017-06-04T00:38:06.779Z,11.26
2017-06-04T00:40:35.192Z,11.78
2017-06-04T00:43:03.559Z,13.48
2017-06-04T00:45:31.921Z,10.22
2017-06-04T00:48:00.308Z,13.62
2017-06-04T00:50:28.667Z,12.22
2017-06-04T00:52:57.055Z,10.88
2017-06-04T00:55:25.427Z,11.68
2017-06-04T00:57:53.810Z,13.10
2017-06-04T01:00:22.181Z,12.90
2017-06-04T01:02:50.575Z,16.76
2017-06-04T01:05:18.939Z,12.80
2017-06-04T01:07:47.305Z,10.92
2017-06-04T01:10:15.731Z,11.78
2017-06-04T01:12:44.098Z,10.88
2017-06-04T01:15:12.480Z,14.76
2017-06-04T01:17:40.842Z,10.84
2017-06-04T01:20:09.226Z,11.92
2017-06-04T01:22:37.591Z,12.46
2017-06-04T01:25:06.012Z,12.12
2017-06-04T01:27:34.385Z,10.40
2017-06-04T01:30:02.750Z,11.52
2017-06-04T01:32:31.139Z,11.54
2017-06-04T01:34:59.500Z,11.26
2017-06-04T01:37:27.887Z,10.68
2017-06-04T01:39:56.256Z,11.24
2017-06-04T01:42:24.640Z,10.94
2017-06-04T01:44:53.087Z,13.58
2017-06-04T01:47:21.479Z,11.44
2017-06-04T01:49:49.843Z,10.44
2017-06-04T01:52:18.225Z,10.02
2017-06-04T01:54:46.612Z,12.14
2017-06-04T01:57:14.213Z,11.78
2017-06-04T01:59:42.595Z,9.92
2017-06-04T02:02:10.961Z,10.82
2017-06-04T02:04:39.356Z,9.48
2017-06-04T02:07:07.723Z,11.68
2017-06-04T02:09:36.101Z,10.94
2017-06-04T02:12:04.488Z,10.24
2017-06-04T02:14:32.907Z,9.70
2017-06-04T02:17:01.286Z,10.62
2017-06-04T02:19:29.664Z,9.16
2017-06-04T02:21:58.051Z,7.80
2017-06-04T02:24:26.427Z,7.96
2017-06-04T02:26:54.052Z,8.38
2017-06-04T02:29:22.414Z,10.90
2017-06-04T02:31:50.772Z,8.88
2017-06-04T02:34:19.160Z,9.12
2017-06-04T02:36:47.520Z,8.56
2017-06-04T02:39:15.905Z,12.82
2017-06-04T02:41:44.268Z,8.82
2017-06-04T02:44:12.648Z,8.28
2017-06-04T02:46:41.009Z,7.70
2017-06-04T02:49:09.417Z,7.82
2017-06-04T02:51:37.781Z,8.90
2017-06-04T02:54:06.144Z,7.10
2017-06-04T02:56:34.538Z,11.10
2017-06-04T02:59:02.128Z,6.40
2017-06-04T03:01:30.514Z,6.92
2017-06-04T03:03:58.876Z,7.48
2017-06-04T03:06:27.289Z,6.92
2017-06-04T03:08:55.704Z,8.04
2017-06-04T03:11:24.058Z,7.72
2017-06-04T03:13:52.440Z,7.46
2017-06-04T03:16:20.804Z,6.48
2017-06-04T03:18:49.184Z,8.50
2017-06-04T03:21:17.540Z,8.06
2017-06-04T03:23:45.922Z,8.26
2017-06-04T03:26:14.290Z,8.50
2017-06-04T03:28:42.676Z,9.04
2017-06-04T03:31:11.041Z,9.50
2017-06-04T03:33:39.397Z,8.60
2017-06-04T03:36:07.019Z,9.22
2017-06-04T03:38:35.382Z,10.58
2017-06-04T03:41:03.769Z,10.28
2017-06-04T03:43:32.134Z,11.22
2017-06-04T03:46:00.520Z,9.96
2017-06-04T03:48:28.885Z,9.78
2017-06-04T03:50:57.298Z,12.64
2017-06-04T03:53:25.672Z,13.52
2017-06-04T03:55:54.044Z,10.82
2017-06-04T03:58:22.434Z,10.42
2017-06-04T04:00:50.032Z,9.88
2017-06-04T04:03:18.506Z,9.86
2017-06-04T04:05:46.868Z,11.72
2017-06-04T04:08:15.371Z,12.34
2017-06-04T04:10:43.737Z,11.44
2017-06-04T04:13:12.244Z,10.94
2017-06-04T04:15:40.608Z,12.48
2017-06-04T04:18:08.977Z,14.26
2017-06-04T04:20:37.373Z,13.42
2017-06-04T04:23:05.823Z,12.16
2017-06-04T04:25:34.215Z,15.46
2017-06-04T04:28:02.586Z,11.94
2017-06-04T04:30:31.900Z,11.08
2017-06-04T04:33:00.271Z,11.94
2017-06-04T04:35:28.691Z,14.80
2017-06-04T04:37:57.059Z,13.94
2017-06-04T04:40:25.447Z,13.96
2017-06-04T04:42:53.837Z,15.04
2017-06-04T04:45:22.215Z,12.00
2017-06-04T04:47:50.598Z,12.84
2017-06-04T04:50:18.977Z,11.88
2017-06-04T04:52:47.376Z,16.32
2017-06-04T04:55:15.747Z,14.88
2017-06-04T04:57:44.206Z,17.60
2017-06-04T05:00:11.808Z,13.38
2017-06-04T05:02:40.205Z,17.04
2017-06-04T05:05:08.598Z,17.42
2017-06-04T05:07:36.995Z,19.56
2017-06-04T05:10:05.407Z,14.42
2017-06-04T05:12:33.832Z,18.22
2017-06-04T05:15:02.227Z,16.22
2017-06-04T05:17:30.606Z,16.76
2017-06-04T05:19:59.024Z,17.68
2017-06-04T05:22:27.390Z,15.28
2017-06-04T05:24:55.768Z,17.82
2017-06-04T05:27:40.950Z,14.26
2017-06-04T05:30:09.320Z,16.40
2017-06-04T05:32:37.710Z,14.38
2017-06-04T05:35:06.075Z,15.00
2017-06-04T05:37:34.544Z,15.38
2017-06-04T05:40:02.908Z,18.00
2017-06-04T05:42:31.307Z,17.12
2017-06-04T05:44:59.687Z,17.92
2017-06-04T05:47:28.056Z,19.04
2017-06-04T05:49:56.456Z,20.36
2017-06-04T05:52:24.091Z,22.40
2017-06-04T05:54:52.476Z,22.88
2017-06-04T05:57:20.842Z,30.62
2017-06-04T05:59:49.228Z,109.46
2017-06-04T06:02:17.601Z,209.56
2017-06-04T06:04:45.992Z,78.88
2017-06-04T06:07:14.360Z,47.24
2017-06-04T06:09:42.764Z,29.62
2017-06-04T06:12:11.139Z,28.94
2017-06-04T06:14:39.502Z,24.94
2017-06-04T06:17:07.887Z,27.06
2017-06-04T06:19:36.252Z,27.78
2017-06-04T06:22:04.645Z,24.82
2017-06-04T06:24:33.016Z,19.76
2017-06-04T06:27:01.413Z,21.20
2017-06-04T06:29:29.775Z,24.28
2017-06-04T06:31:58.188Z,22.04
2017-06-04T06:34:26.599Z,21.62
2017-06-04T06:36:54.962Z,20.06
2017-06-04T06:39:23.379Z,22.54
2017-06-04T06:41:51.745Z,20.98
2017-06-04T06:44:20.131Z,20.06
2017-06-04T06:46:48.504Z,20.68
2017-06-04T06:49:16.912Z,25.12
2017-06-04T06:51:45.279Z,18.62
2017-06-04T06:54:13.745Z,20.16
2017-06-04T06:56:42.135Z,18.32
2017-06-04T06:59:10.507Z,26.32
2017-06-04T07:01:38.901Z,21.06
2017-06-04T07:04:07.352Z,17.92
2017-06-04T07:06:35.743Z,19.62
2017-06-04T07:09:04.111Z,15.60
2017-06-04T07:11:32.504Z,19.84
2017-06-04T07:14:00.874Z,15.00
2017-06-04T07:16:29.237Z,15.74
2017-06-04T07:18:57.632Z,13.10
2017-06-04T07:21:25.991Z,12.86
2017-06-04T07:23:54.383Z,11.78
2017-06-04T07:26:22.756Z,13.88
2017-06-04T07:28:51.138Z,10.84
2017-06-04T07:31:19.505Z,12.42
2017-06-04T07:33:47.908Z,14.22
2017-06-04T07:36:16.273Z,13.36
2017-06-04T07:38:44.640Z,11.02
2017-06-04T07:41:13.032Z,12.74
2017-06-04T07:43:41.395Z,12.18
2017-06-04T07:46:09.786Z,13.94
2017-06-04T07:48:38.151Z,12.00
2017-06-04T07:51:06.546Z,15.46
2017-06-04T07:53:34.913Z,14.48
2017-06-04T07:56:03.303Z,14.94
2017-06-04T07:58:31.666Z,10.64
2017-06-04T08:01:00.056Z,11.04
2017-06-04T08:03:28.431Z,10.86
2017-06-04T08:05:56.826Z,11.82
2017-06-04T08:08:25.194Z,12.64
2017-06-04T08:10:53.583Z,12.00
2017-06-04T08:13:21.942Z,11.50
2017-06-04T08:15:50.335Z,12.60
2017-06-04T08:18:18.700Z,11.74
2017-06-04T08:20:47.082Z,11.40
2017-06-04T08:23:15.443Z,11.82
2017-06-04T08:25:43.838Z,10.58
2017-06-04T08:28:12.198Z,11.24
2017-06-04T08:30:40.599Z,10.80
2017-06-04T08:33:08.962Z,10.62
2017-06-04T08:35:37.350Z,11.04
2017-06-04T08:38:05.711Z,10.86
2017-06-04T08:40:34.112Z,10.64
2017-06-04T08:43:02.469Z,9.26
2017-06-04T08:45:30.890Z,11.30
2017-06-04T08:47:59.250Z,10.20
2017-06-04T08:50:27.612Z,10.42
2017-06-04T08:52:56.003Z,11.52
2017-06-04T08:55:24.363Z,10.50
2017-06-04T08:57:52.767Z,10.08
2017-06-04T09:00:20.382Z,10.30
2017-06-04T09:02:48.768Z,9.72
2017-06-04T09:05:17.124Z,8.90
2017-06-04T09:07:45.523Z,9.84
2017-06-04T09:10:13.914Z,9.88
2017-06-04T09:12:42.315Z,11.62
2017-06-04T09:15:10.678Z,8.32
2017-06-04T09:17:38.363Z,10.70
2017-06-04T09:20:06.722Z,9.16
2017-06-04T09:22:35.141Z,12.90
2017-06-04T09:25:03.503Z,10.88
2017-06-04T09:27:31.861Z,9.40
2017-06-04T09:30:00.242Z,9.12
2017-06-04T09:32:28.618Z,14.86
2017-06-04T09:34:57.004Z,13.90
2017-06-04T09:37:25.377Z,8.12
2017-06-04T09:39:53.759Z,8.82
2017-06-04T09:42:22.125Z,10.00
2017-06-04T09:44:50.546Z,8.10
2017-06-04T09:47:18.899Z,9.18
2017-06-04T09:49:47.258Z,7.04
2017-06-04T09:52:15.643Z,6.72
2017-06-04T09:54:44.165Z,8.40
2017-06-04T09:57:12.564Z,6.88
2017-06-04T09:59:40.916Z,8.36
2017-06-04T10:02:09.298Z,7.66
2017-06-04T10:04:37.752Z,8.32
2017-06-04T10:07:10.164Z,8.48
2017-06-04T10:09:38.592Z,6.30
2017-06-04T10:12:06.957Z,9.24
2017-06-04T10:14:35.352Z,7.84
2017-06-04T10:17:03.723Z,8.94
2017-06-04T10:19:32.108Z,7.68
2017-06-04T10:22:00.472Z,6.76
2017-06-04T10:24:28.859Z,6.32
2017-06-04T10:26:57.236Z,8.62
2017-06-04T10:29:25.638Z,8.76
2017-06-04T10:31:53.999Z,10.04
2017-06-04T10:34:22.355Z,9.12
2017-06-04T10:36:49.985Z,6.86
2017-06-04T10:39:18.345Z,9.14
2017-06-04T10:41:45.974Z,6.46
2017-06-04T10:44:14.360Z,7.26
2017-06-04T10:46:42.748Z,8.14
2017-06-04T10:49:11.126Z,7.62
2017-06-04T10:51:39.539Z,7.04
2017-06-04T10:54:07.895Z,7.00
2017-06-04T10:56:36.245Z,6.60
2017-06-04T10:59:04.652Z,8.98
2017-06-04T11:01:33.019Z,8.88
2017-06-04T11:04:01.410Z,8.96
2017-06-04T11:06:29.776Z,9.06
2017-06-04T11:08:58.164Z,7.00
2017-06-04T11:11:26.527Z,6.38
2017-06-04T11:13:54.957Z,6.40
2017-06-04T11:16:23.318Z,6.36
2017-06-04T11:18:51.686Z,7.70
2017-06-04T11:21:20.072Z,6.46
2017-06-04T11:23:48.431Z,8.24
2017-06-04T11:26:16.908Z,6.84
2017-06-04T11:28:45.263Z,6.06
2017-06-04T11:31:13.672Z,6.98
2017-06-04T11:33:42.032Z,5.24
2017-06-04T11:36:09.656Z,6.22
2017-06-04T11:38:38.024Z,12.16
2017-06-04T11:41:06.385Z,7.22
2017-06-04T11:43:34.803Z,8.36
2017-06-04T11:46:03.215Z,6.18
2017-06-04T11:48:31.600Z,5.80
2017-06-04T11:50:59.954Z,6.26
2017-06-04T11:53:28.343Z,6.78
2017-06-04T11:55:56.727Z,7.28
2017-06-04T11:58:25.128Z,7.24
2017-06-04T12:00:53.487Z,6.80
2017-06-04T12:03:21.872Z,7.04
2017-06-04T12:05:50.233Z,7.02
2017-06-04T12:08:18.620Z,6.10
2017-06-04T12:10:46.975Z,6.48
2017-06-04T12:13:15.358Z,5.96
2017-06-04T12:15:43.733Z,5.60
2017-06-04T12:18:12.121Z,5.46
2017-06-04T12:20:40.587Z,6.20
2017-06-04T12:23:11.087Z,5.50
2017-06-04T12:25:38.712Z,8.12
2017-06-04T12:28:07.104Z,6.74
2017-06-04T12:30:35.496Z,6.94
2017-06-04T12:33:03.883Z,5.82
2017-06-04T12:35:32.246Z,6.06
2017-06-04T12:38:00.632Z,8.20
2017-06-04T12:40:28.247Z,5.98
2017-06-04T12:42:57.207Z,5.36
2017-06-04T12:45:25.563Z,6.86
2017-06-04T12:47:53.943Z,5.70
2017-06-04T12:50:22.367Z,5.76
2017-06-04T12:52:50.752Z,8.66
2017-06-04T12:55:19.128Z,6.10
2017-06-04T12:57:47.511Z,9.88
2017-06-04T13:00:15.895Z,5.62
2017-06-04T13:02:44.288Z,6.36
2017-06-04T13:05:12.664Z,5.48
2017-06-04T13:07:41.074Z,6.64
2017-06-04T13:10:08.687Z,7.66
2017-06-04T13:12:37.074Z,5.84
2017-06-04T13:15:05.478Z,8.78
2017-06-04T13:17:33.863Z,8.66
2017-06-04T13:20:02.225Z,5.70
2017-06-04T13:22:30.615Z,5.62
2017-06-04T13:24:58.981Z,5.86
2017-06-04T13:27:27.375Z,5.74
2017-06-04T13:29:55.816Z,6.90
2017-06-04T13:32:24.196Z,6.88
2017-06-04T13:34:52.574Z,6.94
2017-06-04T13:37:20.980Z,10.38
2017-06-04T13:39:49.336Z,7.18
2017-06-04T13:42:17.695Z,5.72
2017-06-04T13:44:50.119Z,5.56
2017-06-04T13:47:18.484Z,6.50
2017-06-04T13:49:46.867Z,5.82
2017-06-04T13:52:15.228Z,6.44
2017-06-04T13:54:43.622Z,7.96
2017-06-04T13:57:11.985Z,10.92
2017-06-04T13:59:39.688Z,6.54
2017-06-04T14:02:08.043Z,6.12
2017-06-04T14:04:36.427Z,5.60
2017-06-04T14:07:04.784Z,5.88
2017-06-04T14:09:33.178Z,8.86
2017-06-04T14:12:01.579Z,8.20
2017-06-04T14:14:30.035Z,7.70
2017-06-04T14:16:58.396Z,7.74
2017-06-04T14:19:26.791Z,8.42
2017-06-04T14:21:55.211Z,14.18
2017-06-04T14:24:23.658Z,11.70
2017-06-04T14:26:52.042Z,8.62
2017-06-04T14:29:20.522Z,7.80
2017-06-04T14:31:48.962Z,9.36
2017-06-04T14:34:17.347Z,8.72
2017-06-04T14:36:45.708Z,8.14
2017-06-04T14:39:14.102Z,7.34
2017-06-04T14:41:42.480Z,6.82
2017-06-04T14:44:10.868Z,8.10
2017-06-04T14:46:39.236Z,7.86
2017-06-04T14:49:07.629Z,7.40
2017-06-04T14:51:36.003Z,8.84
2017-06-04T14:54:04.387Z,9.62
2017-06-04T14:56:32.764Z,9.82
2017-06-04T14:59:01.142Z,8.62
2017-06-04T15:01:29.508Z,9.04
2017-06-04T15:03:57.891Z,8.66
2017-06-04T15:06:26.258Z,9.06
2017-06-04T15:08:54.638Z,7.38
2017-06-04T15:11:23.024Z,9.44
2017-06-04T15:13:51.414Z,8.20
2017-06-04T15:16:19.779Z,6.96
2017-06-04T15:18:48.172Z,8.80
2017-06-04T15:21:16.538Z,7.92
2017-06-04T15:23:44.920Z,9.04
2017-06-04T15:26:13.292Z,7.86
2017-06-04T15:28:41.669Z,7.46
2017-06-04T15:31:10.052Z,8.40
2017-06-04T15:33:38.451Z,9.00
2017-06-04T15:36:06.821Z,7.84
2017-06-04T15:38:35.235Z,7.04
2017-06-04T15:41:02.837Z,6.20
2017-06-04T15:43:31.228Z,7.94
2017-06-04T15:45:59.607Z,5.48
2017-06-04T15:48:27.988Z,5.52
2017-06-04T15:50:56.370Z,5.96
2017-06-04T15:53:24.738Z,5.08
2017-06-04T15:55:53.116Z,4.76
2017-06-04T15:58:21.495Z,6.30
2017-06-04T16:00:49.885Z,4.74
2017-06-04T16:03:18.267Z,4.42
2017-06-04T16:05:46.630Z,4.02
2017-06-04T16:08:15.031Z,7.02
2017-06-04T16:10:43.396Z,4.42
2017-06-04T16:13:11.777Z,5.60
2017-06-04T16:15:40.147Z,4.44
2017-06-04T16:18:08.547Z,6.02
2017-06-04T16:20:36.907Z,5.44
2017-06-04T16:23:05.291Z,4.84
2017-06-04T16:25:33.679Z,6.48
2017-06-04T16:28:02.055Z,4.72
2017-06-04T16:30:30.430Z,6.08
2017-06-04T16:32:58.787Z,7.28
2017-06-04T16:35:27.198Z,6.20
2017-06-04T16:37:55.558Z,5.46
2017-06-04T16:40:23.912Z,6.20
2017-06-04T16:42:52.295Z,6.30
2017-06-04T16:45:20.659Z,6.46
2017-06-04T16:47:49.052Z,6.76
2017-06-04T16:50:17.408Z,6.68
2017-06-04T16:52:45.769Z,5.42
2017-06-04T16:55:14.152Z,13.40
2017-06-04T16:57:42.506Z,8.98
2017-06-04T17:00:10.922Z,9.48
2017-06-04T17:02:39.294Z,7.06
2017-06-04T17:05:07.653Z,7.04
2017-06-04T17:07:36.035Z,9.40
2017-06-04T17:10:04.409Z,6.32
2017-06-04T17:12:32.819Z,5.16
2017-06-04T17:15:01.178Z,5.52
2017-06-04T17:17:29.815Z,6.92
2017-06-04T17:19:58.190Z,7.40
2017-06-04T17:22:26.548Z,8.76
2017-06-04T17:24:54.964Z,5.56
2017-06-04T17:27:23.333Z,5.86
2017-06-04T17:29:51.706Z,6.24
2017-06-04T17:32:20.088Z,9.52
2017-06-04T17:34:48.483Z,5.56
2017-06-04T17:37:16.861Z,8.22
2017-06-04T17:39:45.248Z,5.42
2017-06-04T17:42:13.666Z,7.62
2017-06-04T17:44:42.056Z,5.94
2017-06-04T17:47:10.424Z,6.38
2017-06-04T17:49:38.882Z,8.62
2017-06-04T17:52:07.246Z,6.70
2017-06-04T17:54:35.628Z,6.48
2017-06-04T17:57:03.223Z,6.58
2017-06-04T17:59:31.738Z,6.12
2017-06-04T18:02:00.098Z,7.40
2017-06-04T18:04:28.499Z,6.20
2017-06-04T18:06:57.054Z,6.08
2017-06-04T18:09:25.431Z,11.38
2017-06-04T18:11:53.832Z,6.44
2017-06-04T18:14:22.190Z,6.84
2017-06-04T18:16:50.691Z,6.66
2017-06-04T18:19:18.295Z,6.64
2017-06-04T18:21:46.053Z,6.02
2017-06-04T18:24:14.436Z,6.26
2017-06-04T18:26:42.034Z,5.28
2017-06-04T18:29:10.500Z,7.46
2017-06-04T18:31:38.870Z,6.56
2017-06-04T18:34:07.317Z,6.98
2017-06-04T18:36:35.695Z,6.80
2017-06-04T18:39:04.121Z,6.28
2017-06-04T18:41:32.486Z,6.20
2017-06-04T18:44:00.937Z,8.06
2017-06-04T18:46:29.320Z,5.64
2017-06-04T18:48:57.762Z,7.12
2017-06-04T18:51:26.226Z,5.82
2017-06-04T18:53:54.618Z,6.58
2017-06-04T18:56:22.999Z,7.68
2017-06-04T18:58:51.390Z,4.96
2017-06-04T19:01:19.830Z,5.50
2017-06-04T19:03:48.219Z,5.38
2017-06-04T19:06:16.695Z,5.50
2017-06-04T19:08:45.056Z,5.34
2017-06-04T19:11:13.557Z,7.66
2017-06-04T19:13:41.939Z,7.60
2017-06-04T19:16:10.305Z,5.84
2017-06-04T19:18:38.710Z,7.00
2017-06-04T19:21:07.084Z,8.64
2017-06-04T19:23:35.483Z,9.94
2017-06-04T19:26:03.872Z,6.58
2017-06-04T19:28:32.304Z,6.06
2017-06-04T19:31:00.689Z,5.34
2017-06-04T19:33:29.099Z,7.32
2017-06-04T19:35:57.516Z,6.20
2017-06-04T19:38:25.903Z,6.64
2017-06-04T19:40:54.263Z,7.66
2017-06-04T19:43:22.695Z,5.50
2017-06-04T19:45:51.086Z,6.52
2017-06-04T19:48:19.493Z,8.66
2017-06-04T19:50:47.854Z,6.64
2017-06-04T19:53:16.267Z,8.90
2017-06-04T19:55:44.679Z,6.22
2017-06-04T19:58:13.058Z,7.10
2017-06-04T20:00:41.494Z,7.80
2017-06-04T20:03:09.887Z,8.10
2017-06-04T20:05:38.316Z,9.20
2017-06-04T20:08:06.675Z,9.04
2017-06-04T20:10:35.062Z,7.72
2017-06-04T20:13:03.427Z,7.60
2017-06-04T20:15:31.813Z,8.34
2017-06-04T20:18:00.179Z,9.10
2017-06-04T20:20:28.566Z,7.62
2017-06-04T20:22:56.945Z,7.50
2017-06-04T20:25:25.322Z,6.98
2017-06-04T20:27:53.707Z,7.56
2017-06-04T20:30:22.078Z,7.54
2017-06-04T20:32:50.476Z,7.40
2017-06-04T20:35:18.860Z,7.82
2017-06-04T20:37:47.251Z,8.00
2017-06-04T20:40:15.616Z,7.74
2017-06-04T20:42:44.047Z,8.12
2017-06-04T20:45:12.417Z,7.44
2017-06-04T20:47:40.793Z,7.48
2017-06-04T20:50:09.187Z,7.38
2017-06-04T20:52:37.552Z,9.66
2017-06-04T20:55:05.947Z,9.78
2017-06-04T20:57:34.318Z,7.74
2017-06-04T21:00:02.728Z,7.42
2017-06-04T21:02:31.106Z,8.18
2017-06-04T21:04:59.499Z,7.12
2017-06-04T21:07:27.860Z,9.14
2017-06-04T21:09:56.295Z,7.98
2017-06-04T21:12:24.717Z,7.92
2017-06-04T21:14:53.085Z,6.92
2017-06-04T21:17:21.475Z,8.92
2017-06-04T21:19:49.841Z,7.98
2017-06-04T21:22:19.231Z,7.40
2017-06-04T21:24:47.603Z,8.26
2017-06-04T21:27:16.093Z,7.36
2017-06-04T21:29:44.467Z,10.64
2017-06-04T21:32:12.957Z,8.52
2017-06-04T21:34:41.325Z,8.56
2017-06-04T21:37:09.692Z,9.50
2017-06-04T21:39:38.078Z,7.72
2017-06-04T21:42:06.441Z,6.82
2017-06-04T21:44:34.829Z,8.18
2017-06-04T21:47:03.191Z,10.80
2017-06-04T21:49:31.571Z,7.44
2017-06-04T21:51:59.968Z,8.08
2017-06-04T21:54:28.365Z,10.00
2017-06-04T21:56:56.807Z,7.48
2017-06-04T21:59:25.224Z,7.40
2017-06-04T22:01:53.596Z,7.70
2017-06-04T22:04:21.970Z,7.18
2017-06-04T22:06:50.363Z,7.08
2017-06-04T22:09:18.728Z,6.68
2017-06-04T22:11:47.130Z,6.78
2017-06-04T22:14:15.523Z,10.44
2017-06-04T22:16:43.906Z,8.30
2017-06-04T22:19:12.271Z,8.38
2017-06-04T22:21:40.755Z,9.66
2017-06-04T22:24:09.154Z,9.04
2017-06-04T22:26:37.527Z,8.14
2017-06-04T22:29:05.934Z,10.42
2017-06-04T22:31:34.319Z,9.92
2017-06-04T22:34:02.701Z,6.90
2017-06-04T22:36:31.075Z,8.00
2017-06-04T22:38:59.460Z,9.58
2017-06-04T22:41:27.845Z,8.00
2017-06-04T22:43:56.250Z,7.02
2017-06-04T22:46:24.617Z,7.08
2017-06-04T22:48:53.018Z,7.94
2017-06-04T22:51:21.715Z,9.60
2017-06-04T22:53:50.081Z,9.34
2017-06-04T22:56:18.477Z,8.46
2017-06-04T22:58:46.848Z,7.42
2017-06-04T23:01:15.232Z,8.16
2017-06-04T23:03:43.599Z,10.04
2017-06-04T23:06:11.985Z,11.26
2017-06-04T23:08:39.660Z,7.86
2017-06-04T23:11:08.047Z,6.50
2017-06-04T23:13:36.438Z,8.80
2017-06-04T23:16:04.071Z,11.80
2017-06-04T23:18:32.438Z,10.02
2017-06-04T23:21:00.802Z,9.30
2017-06-04T23:23:29.341Z,8.98
2017-06-04T23:25:57.712Z,8.26
2017-06-04T23:28:26.129Z,10.18
2017-06-04T23:30:54.490Z,8.38
2017-06-04T23:33:22.881Z,8.78
2017-06-04T23:35:51.248Z,7.62
2017-06-04T23:38:19.635Z,11.62
2017-06-04T23:40:48.004Z,8.14
2017-06-04T23:43:16.391Z,9.12
2017-06-04T23:45:43.992Z,9.48
2017-06-04T23:48:12.409Z,7.54
2017-06-04T23:50:40.777Z,9.58
2017-06-04T23:53:09.166Z,7.80
2017-06-04T23:55:37.558Z,13.60
2017-06-04T23:58:05.923Z,9.16
